createdAt,value
2019-06-10T00:02:07.141Z,0.50
2019-06-10T00:04:36.893Z,0.78
2019-06-10T00:07:07.341Z,0.70
2019-06-10T00:09:40.577Z,0.60
2019-06-10T00:14:41.869Z,0.75
2019-06-10T00:17:12.734Z,1.00
2019-06-10T00:19:42.342Z,0.98
2019-06-10T00:22:12.050Z,0.70
2019-06-10T00:24:41.597Z,0.70
2019-06-10T00:27:11.993Z,0.78
2019-06-10T00:29:41.748Z,1.00
2019-06-10T00:32:13.091Z,1.00
2019-06-10T00:34:42.744Z,1.27
2019-06-10T00:37:14.697Z,1.00
2019-06-10T00:39:43.577Z,0.80
2019-06-10T00:42:15.365Z,1.60
2019-06-10T00:44:46.262Z,2.27
2019-06-10T00:47:16.049Z,2.75
2019-06-10T00:49:45.723Z,2.15
2019-06-10T00:52:15.355Z,1.35
2019-06-10T00:54:45.055Z,1.10
2019-06-10T00:57:14.768Z,0.90
2019-06-10T00:59:45.805Z,1.67
2019-06-10T01:02:15.515Z,1.55
2019-06-10T01:04:46.586Z,2.47
2019-06-10T01:07:16.195Z,3.02
2019-06-10T01:09:45.932Z,1.87
2019-06-10T01:12:15.546Z,2.45
2019-06-10T01:14:45.155Z,4.53
2019-06-10T01:17:15.424Z,4.08
2019-06-10T01:19:45.294Z,3.80
2019-06-10T01:22:15.919Z,6.17
2019-06-10T01:24:46.139Z,6.12
2019-06-10T01:27:17.920Z,3.40
2019-06-10T01:29:47.792Z,3.12
2019-06-10T01:32:17.700Z,4.35
2019-06-10T01:34:47.477Z,5.35
2019-06-10T01:37:17.633Z,4.33
2019-06-10T01:39:47.518Z,3.77
2019-06-10T01:42:17.278Z,3.83
2019-06-10T01:44:46.938Z,4.95
2019-06-10T01:47:17.561Z,4.90
2019-06-10T01:49:47.458Z,5.15
2019-06-10T01:52:18.317Z,5.85
2019-06-10T01:54:48.288Z,5.03
2019-06-10T01:57:18.632Z,5.70
2019-06-10T01:59:50.716Z,6.00
2019-06-10T02:02:23.860Z,4.92
2019-06-10T02:04:54.386Z,5.70
2019-06-10T02:07:24.005Z,4.30
2019-06-10T02:09:53.677Z,6.55
2019-06-10T02:12:24.525Z,6.17
2019-06-10T02:14:54.181Z,4.67
2019-06-10T02:17:24.267Z,3.77
2019-06-10T02:19:53.928Z,5.58
2019-06-10T02:22:24.485Z,2.37
2019-06-10T02:24:54.289Z,4.75
2019-06-10T02:27:26.220Z,2.90
2019-06-10T02:29:55.748Z,2.35
2019-06-10T02:32:32.931Z,3.05
2019-06-10T02:35:13.653Z,2.70
2019-06-10T02:37:32.838Z,4.58
2019-06-10T02:39:59.095Z,2.47
2019-06-10T02:42:35.131Z,3.98
2019-06-10T02:45:03.633Z,5.42
2019-06-10T02:47:37.667Z,5.75
2019-06-10T02:50:08.906Z,4.65
2019-06-10T02:52:38.905Z,5.33
2019-06-10T02:55:08.968Z,3.42
2019-06-10T02:57:40.340Z,4.45
2019-06-10T03:00:16.998Z,3.85
2019-06-10T03:02:44.987Z,2.83
2019-06-10T03:05:14.480Z,3.27
2019-06-10T03:10:16.055Z,4.58
2019-06-10T03:12:45.591Z,2.87
2019-06-10T03:15:15.757Z,4.00
2019-06-10T03:17:45.439Z,3.50
2019-06-10T03:20:15.998Z,7.58
2019-06-10T03:22:45.939Z,6.17
2019-06-10T03:25:16.308Z,3.62
2019-06-10T03:27:46.127Z,7.20
2019-06-10T03:30:22.139Z,3.65
2019-06-10T03:32:47.654Z,4.30
2019-06-10T03:35:17.619Z,4.77
2019-06-10T03:37:47.388Z,4.67
2019-06-10T03:40:17.055Z,3.87
2019-06-10T03:42:46.935Z,5.70
2019-06-10T03:45:17.451Z,5.10
2019-06-10T03:47:47.299Z,5.05
2019-06-10T03:50:17.227Z,5.75
2019-06-10T03:52:47.042Z,7.70
2019-06-10T03:55:17.281Z,5.72
2019-06-10T03:57:46.871Z,6.08
2019-06-10T04:00:22.047Z,7.80
2019-06-10T04:02:54.050Z,9.53
2019-06-10T04:05:25.756Z,5.78
2019-06-10T04:07:55.852Z,5.47
2019-06-10T04:10:28.184Z,6.12
2019-06-10T04:12:56.856Z,6.58
2019-06-10T04:15:28.301Z,4.72
2019-06-10T04:17:57.709Z,4.42
2019-06-10T04:20:28.323Z,3.77
2019-06-10T04:22:58.487Z,5.33
2019-06-10T04:25:29.489Z,4.50
2019-06-10T04:27:59.502Z,6.03
2019-06-10T04:30:29.348Z,10.43
2019-06-10T04:33:02.166Z,6.45
2019-06-10T04:35:30.986Z,6.55
2019-06-10T04:38:02.399Z,7.20
2019-06-10T04:40:32.983Z,8.50
2019-06-10T04:43:03.059Z,8.18
2019-06-10T04:45:32.748Z,12.23
2019-06-10T04:48:03.036Z,7.45
2019-06-10T04:50:41.535Z,7.10
2019-06-10T04:53:03.961Z,10.13
2019-06-10T04:55:33.565Z,11.50
2019-06-10T04:58:03.344Z,9.50
2019-06-10T05:00:33.206Z,6.55
2019-06-10T05:03:03.006Z,6.12
2019-06-10T05:05:32.953Z,8.93
2019-06-10T05:08:02.835Z,8.03
2019-06-10T05:10:33.160Z,9.48
2019-06-10T05:13:04.260Z,7.05
2019-06-10T05:15:35.021Z,9.35
2019-06-10T05:18:04.855Z,8.48
2019-06-10T05:20:51.070Z,9.25
2019-06-10T05:23:05.626Z,9.98
2019-06-10T05:25:35.292Z,7.28
2019-06-10T05:28:04.916Z,7.33
2019-06-10T05:30:34.625Z,7.37
2019-06-10T05:33:04.258Z,8.73
2019-06-10T05:35:34.102Z,15.05
2019-06-10T05:38:04.812Z,7.95
2019-06-10T05:40:35.415Z,8.95
2019-06-10T05:43:04.967Z,9.07
2019-06-10T05:45:35.115Z,11.18
2019-06-10T05:48:04.970Z,9.30
2019-06-10T05:50:35.003Z,11.38
2019-06-10T05:53:04.808Z,9.88
2019-06-10T05:55:35.497Z,9.35
2019-06-10T05:58:05.126Z,12.70
2019-06-10T06:00:35.509Z,11.28
2019-06-10T06:03:06.414Z,8.30
2019-06-10T06:05:36.618Z,8.40
2019-06-10T06:08:08.955Z,8.05
2019-06-10T06:10:38.529Z,11.55
2019-06-10T06:13:08.077Z,8.75
2019-06-10T06:15:38.091Z,8.28
2019-06-10T06:18:10.912Z,7.83
2019-06-10T06:20:43.650Z,7.58
2019-06-10T06:25:44.380Z,11.40
2019-06-10T06:28:15.947Z,8.45
2019-06-10T06:30:44.572Z,8.83
2019-06-10T06:33:14.235Z,8.20
2019-06-10T06:35:46.569Z,7.67
2019-06-10T06:38:15.094Z,7.97
2019-06-10T06:40:44.801Z,10.23
2019-06-10T06:43:14.542Z,7.20
2019-06-10T06:45:44.094Z,9.65
2019-06-10T06:48:13.743Z,5.08
2019-06-10T06:51:00.093Z,7.62
2019-06-10T06:55:45.596Z,8.13
2019-06-10T06:58:15.353Z,6.00
2019-06-10T07:01:00.724Z,4.47
2019-06-10T07:03:16.330Z,4.55
2019-06-10T07:05:46.705Z,8.58
2019-06-10T07:08:17.307Z,6.62
2019-06-10T07:10:48.229Z,8.30
2019-06-10T07:13:18.979Z,9.60
2019-06-10T07:15:48.765Z,3.98
2019-06-10T07:18:18.389Z,8.45
2019-06-10T07:20:48.031Z,7.53
2019-06-10T07:23:17.636Z,5.72
2019-06-10T07:25:47.806Z,5.25
2019-06-10T07:28:17.545Z,4.85
2019-06-10T07:30:51.439Z,8.75
2019-06-10T07:33:18.264Z,6.03
2019-06-10T07:35:47.866Z,5.12
2019-06-10T07:38:17.581Z,10.20
2019-06-10T07:40:47.259Z,5.35
2019-06-10T07:43:16.948Z,7.97
2019-06-10T07:45:48.046Z,6.15
2019-06-10T07:48:17.991Z,6.05
2019-06-10T07:50:47.650Z,5.33
2019-06-10T07:53:17.288Z,9.83
2019-06-10T07:55:47.057Z,5.35
2019-06-10T07:58:16.779Z,5.70
2019-06-10T08:00:48.310Z,3.75
2019-06-10T08:03:17.720Z,3.58
2019-06-10T08:05:47.651Z,6.28
2019-06-10T08:08:17.239Z,8.83
2019-06-10T08:10:48.132Z,7.20
2019-06-10T08:13:18.001Z,5.03
2019-06-10T08:15:48.359Z,5.45
2019-06-10T08:18:18.105Z,7.00
2019-06-10T08:20:52.657Z,5.03
2019-06-10T08:23:23.582Z,5.92
2019-06-10T08:25:57.217Z,3.05
2019-06-10T08:28:24.249Z,6.35
2019-06-10T08:30:54.005Z,3.70
2019-06-10T08:33:23.601Z,4.22
2019-06-10T08:35:59.908Z,4.22
2019-06-10T08:38:24.483Z,3.60
2019-06-10T08:40:54.192Z,3.95
2019-06-10T08:43:23.905Z,5.40
2019-06-10T08:45:54.973Z,4.45
2019-06-10T08:48:24.599Z,3.58
2019-06-10T08:50:54.663Z,3.90
2019-06-10T08:53:24.317Z,7.42
2019-06-10T08:55:54.968Z,2.90
2019-06-10T08:58:24.456Z,3.98
2019-06-10T09:00:54.131Z,3.22
2019-06-10T09:03:23.761Z,7.72
2019-06-10T09:05:55.172Z,3.00
2019-06-10T09:08:25.493Z,8.60
2019-06-10T09:10:55.531Z,4.05
2019-06-10T09:13:25.794Z,5.15
2019-06-10T09:16:11.686Z,3.40
2019-06-10T09:18:26.617Z,2.98
2019-06-10T09:20:56.415Z,3.33
2019-06-10T09:23:26.303Z,6.03
2019-06-10T09:25:57.433Z,4.30
2019-06-10T09:28:27.306Z,2.80
2019-06-10T09:30:59.333Z,2.70
2019-06-10T09:33:28.268Z,3.02
2019-06-10T09:35:57.857Z,6.37
2019-06-10T09:38:27.542Z,4.35
2019-06-10T09:41:01.863Z,3.02
2019-06-10T09:43:28.521Z,4.03
2019-06-10T09:45:58.118Z,3.08
2019-06-10T09:48:28.236Z,2.92
2019-06-10T09:50:59.100Z,1.95
2019-06-10T09:53:35.725Z,3.75
2019-06-10T09:56:00.123Z,4.30
2019-06-10T09:58:32.943Z,4.15
2019-06-10T10:01:03.543Z,2.12
2019-06-10T10:03:33.396Z,3.30
2019-06-10T10:06:11.505Z,3.47
2019-06-10T10:08:35.864Z,2.45
2019-06-10T10:11:05.513Z,3.22
2019-06-10T10:13:35.583Z,4.83
2019-06-10T10:16:05.706Z,2.95
2019-06-10T10:18:36.544Z,2.45
2019-06-10T10:21:06.301Z,2.15
2019-06-10T10:23:50.374Z,3.12
2019-06-10T10:26:08.191Z,2.92
2019-06-10T10:28:37.954Z,2.37
2019-06-10T10:31:07.635Z,3.37
2019-06-10T10:33:37.324Z,1.75
2019-06-10T10:36:06.986Z,4.10
2019-06-10T10:38:36.637Z,2.30
2019-06-10T10:41:06.263Z,1.82
2019-06-10T10:43:37.985Z,4.60
2019-06-10T10:46:07.632Z,5.15
2019-06-10T10:48:37.250Z,4.08
2019-06-10T10:51:06.880Z,3.10
2019-06-10T10:53:37.462Z,1.57
2019-06-10T10:56:07.018Z,2.40
2019-06-10T10:58:36.698Z,1.65
2019-06-10T11:01:06.346Z,3.10
2019-06-10T11:03:36.000Z,2.47
2019-06-10T11:06:05.610Z,2.47
2019-06-10T11:08:35.289Z,5.92
2019-06-10T11:11:05.870Z,3.40
2019-06-10T11:13:36.810Z,2.77
2019-06-10T11:16:06.839Z,4.95
2019-06-10T11:18:36.481Z,1.55
2019-06-10T11:21:06.182Z,3.22
2019-06-10T11:23:36.010Z,3.55
2019-06-10T11:26:05.772Z,3.72
2019-06-10T11:28:35.455Z,1.95
2019-06-10T11:31:07.211Z,3.95
2019-06-10T11:33:36.708Z,3.95
2019-06-10T11:36:06.404Z,5.28
2019-06-10T11:38:36.129Z,5.75
2019-06-10T11:41:05.698Z,2.55
2019-06-10T11:43:35.754Z,7.12
2019-06-10T11:46:07.810Z,6.60
2019-06-10T11:48:36.654Z,3.17
2019-06-10T11:51:06.298Z,1.95
2019-06-10T11:53:35.976Z,4.92
2019-06-10T11:56:05.508Z,5.37
2019-06-10T11:58:35.121Z,4.42
2019-06-10T12:01:04.915Z,6.62
2019-06-10T12:03:35.519Z,1.55
2019-06-10T12:06:05.706Z,3.47
2019-06-10T12:08:35.732Z,2.87
2019-06-10T12:11:05.387Z,4.15
2019-06-10T12:13:35.067Z,3.47
2019-06-10T12:17:08.542Z,3.80
2019-06-10T12:21:05.071Z,4.05
2019-06-10T12:23:34.738Z,2.87
2019-06-10T12:26:05.216Z,5.33
2019-06-10T12:28:35.045Z,3.60
2019-06-10T12:31:07.274Z,3.67
2019-06-10T12:33:37.492Z,7.53
2019-06-10T12:36:07.699Z,5.87
2019-06-10T12:38:37.471Z,5.37
2019-06-10T12:41:10.068Z,6.22
2019-06-10T12:43:38.352Z,4.05
2019-06-10T12:46:08.256Z,4.00
2019-06-10T12:48:37.775Z,5.83
2019-06-10T12:51:09.499Z,4.00
2019-06-10T12:53:38.724Z,3.20
2019-06-10T12:56:11.300Z,6.10
2019-06-10T12:58:39.492Z,4.60
2019-06-10T13:01:09.143Z,6.42
2019-06-10T13:03:38.737Z,6.20
2019-06-10T13:06:09.812Z,3.80
2019-06-10T13:08:42.649Z,3.50
2019-06-10T13:11:13.266Z,4.22
2019-06-10T13:13:43.675Z,3.02
2019-06-10T13:16:14.624Z,5.97
2019-06-10T13:18:44.369Z,3.58
2019-06-10T13:21:17.620Z,3.00
2019-06-10T13:23:45.152Z,4.87
2019-06-10T13:26:16.617Z,6.83
2019-06-10T13:28:46.330Z,1.72
2019-06-10T13:31:16.923Z,3.77
2019-06-10T13:33:46.694Z,5.58
2019-06-10T13:36:16.302Z,3.90
2019-06-10T13:38:45.834Z,3.17
2019-06-10T13:41:15.523Z,1.80
2019-06-10T13:43:45.052Z,1.90
2019-06-10T13:46:14.648Z,2.50
2019-06-10T13:48:44.593Z,3.10
2019-06-10T13:51:15.659Z,4.25
2019-06-10T13:53:46.188Z,3.20
2019-06-10T13:56:39.793Z,2.37
2019-06-10T13:58:48.532Z,2.02
2019-06-10T14:01:22.096Z,4.35
2019-06-10T14:03:49.342Z,4.10
2019-06-10T14:06:37.096Z,5.53
2019-06-10T14:08:52.195Z,3.75
2019-06-10T14:11:25.787Z,2.70
2019-06-10T14:13:52.836Z,2.00
2019-06-10T14:16:23.761Z,2.45
2019-06-10T14:18:54.142Z,3.05
2019-06-10T14:21:24.161Z,1.87
2019-06-10T14:23:53.906Z,2.65
2019-06-10T14:26:36.464Z,1.80
2019-06-10T14:28:54.834Z,2.52
2019-06-10T14:31:39.482Z,2.75
2019-06-10T14:33:55.868Z,4.42
2019-06-10T14:36:25.377Z,3.27
2019-06-10T14:38:54.933Z,4.85
2019-06-10T14:41:26.016Z,2.02
2019-06-10T14:43:55.951Z,6.22
2019-06-10T14:46:25.596Z,1.95
2019-06-10T14:48:55.204Z,3.10
2019-06-10T14:51:24.968Z,2.55
2019-06-10T14:53:55.632Z,2.27
2019-06-10T14:56:25.304Z,2.10
2019-06-10T14:58:54.915Z,1.62
2019-06-10T15:01:25.873Z,2.92
2019-06-10T15:03:55.907Z,2.58
2019-06-10T15:06:30.152Z,1.90
2019-06-10T15:09:11.492Z,3.90
2019-06-10T15:17:18.956Z,0.88
2019-06-10T15:20:07.448Z,1.82
2019-06-10T15:25:49.023Z,4.70
2019-06-10T15:28:21.092Z,2.55
2019-06-10T15:31:12.963Z,3.75
2019-06-10T15:34:24.342Z,2.37
2019-06-10T15:40:43.136Z,1.82
2019-06-10T15:42:34.798Z,2.70
2019-06-10T15:45:09.814Z,1.72
2019-06-10T15:50:45.109Z,2.22
2019-06-10T15:53:27.013Z,5.90
2019-06-10T15:56:31.976Z,1.75
2019-06-10T15:59:02.947Z,1.20
2019-06-10T16:01:40.800Z,2.42
2019-06-10T16:04:34.981Z,1.92
2019-06-10T16:07:42.215Z,1.82
2019-06-10T16:09:58.653Z,1.47
2019-06-10T16:12:38.717Z,2.58
2019-06-10T16:15:16.589Z,0.85
2019-06-10T16:17:57.597Z,2.17
2019-06-10T16:20:29.216Z,3.00
2019-06-10T16:23:13.876Z,2.72
2019-06-10T16:28:47.990Z,1.60
2019-06-10T16:31:28.022Z,0.95
2019-06-10T16:37:16.981Z,1.67
2019-06-10T16:40:16.920Z,0.98
2019-06-10T16:42:38.404Z,2.00
2019-06-10T16:48:07.632Z,0.60
2019-06-10T16:50:56.484Z,1.70
2019-06-10T16:53:35.594Z,1.70
2019-06-10T16:56:26.010Z,0.88
2019-06-10T17:04:43.302Z,1.70
2019-06-10T17:07:20.549Z,0.82
2019-06-10T17:10:34.383Z,0.40
2019-06-10T17:13:23.724Z,0.82
2019-06-10T17:17:05.851Z,1.12
2019-06-10T17:19:55.771Z,0.98
2019-06-10T17:21:44.171Z,0.50
2019-06-10T17:27:16.085Z,1.57
2019-06-10T17:30:04.139Z,0.93
2019-06-10T17:32:53.205Z,0.65
2019-06-10T17:35:36.953Z,1.65
2019-06-10T17:39:21.274Z,1.20
2019-06-10T17:41:17.076Z,0.40
2019-06-10T17:43:55.055Z,21.97
2019-06-10T17:46:44.448Z,1.55
2019-06-10T17:53:16.322Z,3.77
2019-06-10T17:55:08.043Z,1.32
2019-06-10T17:57:53.633Z,0.70
2019-06-10T18:00:49.059Z,0.50
2019-06-10T18:03:31.424Z,0.68
2019-06-10T18:06:25.884Z,0.45
2019-06-10T18:09:12.305Z,2.27
2019-06-10T18:11:42.725Z,0.95
2019-06-10T18:14:15.543Z,1.80
2019-06-10T18:16:52.430Z,0.82
2019-06-10T18:19:30.494Z,0.88
2019-06-10T18:22:18.991Z,0.70
2019-06-10T18:24:58.782Z,1.00
2019-06-10T18:27:58.070Z,0.50
2019-06-10T18:31:23.239Z,0.62
2019-06-10T18:33:22.741Z,0.70
2019-06-10T18:36:28.029Z,0.80
2019-06-10T18:39:12.371Z,1.50
2019-06-10T18:41:24.798Z,1.00
2019-06-10T18:44:23.025Z,0.65
2019-06-10T18:50:53.153Z,1.82
2019-06-10T18:53:18.082Z,1.03
2019-06-10T18:55:24.437Z,0.60
2019-06-10T18:58:22.195Z,1.52
2019-06-10T19:01:18.335Z,1.20
2019-06-10T19:03:49.418Z,0.60
2019-06-10T19:06:19.156Z,2.33
2019-06-10T19:08:49.078Z,1.32
2019-06-10T19:11:23.252Z,1.60
2019-06-10T19:14:04.359Z,0.75
2019-06-10T19:16:38.210Z,4.25
2019-06-10T19:19:15.521Z,0.53
2019-06-10T19:21:53.270Z,0.53
2019-06-10T19:24:23.469Z,0.85
2019-06-10T19:26:53.547Z,0.50
2019-06-10T19:29:33.474Z,0.50
2019-06-10T19:34:31.341Z,1.52
2019-06-10T19:37:02.619Z,2.33
2019-06-10T19:39:41.308Z,1.15
2019-06-10T19:42:09.248Z,0.72
2019-06-10T19:44:38.731Z,0.70
2019-06-10T19:47:12.855Z,1.20
2019-06-10T19:49:45.085Z,1.57
2019-06-10T19:52:19.247Z,1.17
2019-06-10T19:54:53.083Z,1.30
2019-06-10T19:57:25.564Z,1.22
2019-06-10T20:00:07.337Z,1.22
2019-06-10T20:02:29.515Z,1.20
2019-06-10T20:04:59.067Z,0.93
2019-06-10T20:07:34.069Z,1.50
2019-06-10T20:10:07.503Z,1.30
2019-06-10T20:12:46.609Z,1.30
2019-06-10T20:15:23.000Z,1.00
2019-06-10T20:17:53.426Z,1.00
2019-06-10T20:20:26.028Z,0.95
2019-06-10T20:22:57.511Z,1.92
2019-06-10T20:25:27.019Z,0.80
2019-06-10T20:27:56.700Z,2.05
2019-06-10T20:30:28.841Z,0.70
2019-06-10T20:32:58.206Z,1.12
2019-06-10T20:35:27.750Z,0.90
2019-06-10T20:37:57.432Z,1.00
2019-06-10T20:40:27.035Z,3.50
2019-06-10T20:42:59.598Z,0.75
2019-06-10T20:45:27.943Z,1.75
2019-06-10T20:47:57.745Z,1.25
2019-06-10T20:50:27.432Z,1.10
2019-06-10T20:53:10.934Z,2.65
2019-06-10T20:55:40.669Z,1.65
2019-06-10T20:58:04.234Z,1.52
2019-06-10T21:00:36.379Z,1.98
2019-06-10T21:03:06.623Z,1.37
2019-06-10T21:05:41.554Z,4.55
2019-06-10T21:08:12.267Z,0.95
2019-06-10T21:10:45.043Z,0.93
2019-06-10T21:13:13.424Z,1.00
2019-06-10T21:15:45.622Z,0.80
2019-06-10T21:18:14.344Z,1.22
2019-06-10T21:20:49.206Z,1.98
2019-06-10T21:23:16.426Z,1.37
2019-06-10T21:25:48.772Z,1.57
2019-06-10T21:28:17.371Z,1.72
2019-06-10T21:30:52.089Z,1.80
2019-06-10T21:33:18.390Z,1.77
2019-06-10T21:35:49.044Z,1.35
2019-06-10T21:38:19.269Z,1.30
2019-06-10T21:40:49.769Z,1.35
2019-06-10T21:43:19.372Z,1.40
2019-06-10T21:45:53.966Z,1.22
2019-06-10T21:48:20.244Z,1.20
2019-06-10T21:50:54.585Z,3.72
2019-06-10T21:53:22.429Z,0.93
2019-06-10T21:55:54.901Z,1.40
2019-06-10T21:58:23.537Z,1.80
2019-06-10T22:01:08.280Z,1.65
2019-06-10T22:05:53.812Z,1.37
2019-06-10T22:08:24.657Z,2.25
2019-06-10T22:10:56.211Z,3.60
2019-06-10T22:13:25.657Z,3.35
2019-06-10T22:15:57.106Z,1.72
2019-06-10T22:18:27.031Z,2.27
2019-06-10T22:20:57.708Z,2.27
2019-06-10T22:23:27.534Z,1.30
2019-06-10T22:25:57.740Z,0.93
2019-06-10T22:28:27.765Z,3.85
2019-06-10T22:31:15.117Z,1.67
2019-06-10T22:33:28.602Z,1.57
2019-06-10T22:35:58.170Z,2.55
2019-06-10T22:38:27.849Z,1.32
2019-06-10T22:40:57.450Z,2.42
2019-06-10T22:43:27.049Z,2.65
2019-06-10T22:45:57.681Z,1.43
2019-06-10T22:48:27.319Z,1.37
2019-06-10T22:50:57.060Z,1.82
2019-06-10T22:53:27.069Z,2.20
2019-06-10T22:55:58.960Z,1.65
2019-06-10T22:58:28.873Z,0.90
2019-06-10T23:00:58.419Z,1.35
2019-06-10T23:03:28.033Z,1.95
2019-06-10T23:05:58.495Z,1.22
2019-06-10T23:08:28.310Z,1.57
2019-06-10T23:10:58.529Z,1.30
2019-06-10T23:13:29.309Z,2.98
2019-06-10T23:16:02.431Z,1.87
2019-06-10T23:18:32.038Z,1.50
2019-06-10T23:21:04.317Z,1.87
2019-06-10T23:23:34.150Z,1.57
2019-06-10T23:26:03.745Z,2.90
2019-06-10T23:28:33.406Z,1.92
2019-06-10T23:31:05.241Z,1.98
2019-06-10T23:33:34.370Z,2.85
2019-06-10T23:36:04.282Z,1.67
2019-06-10T23:38:34.008Z,2.62
2019-06-10T23:41:03.906Z,3.52
2019-06-10T23:43:34.045Z,3.30
2019-06-10T23:46:04.406Z,3.08
2019-06-10T23:48:34.489Z,6.05
2019-06-10T23:51:05.097Z,2.77
2019-06-10T23:53:36.115Z,2.42
2019-06-10T23:56:05.999Z,3.60
2019-06-10T23:58:35.548Z,2.12
